TimeCST,TemperatureF,Dew PointF,Humidity,Sea Level PressureIn,VisibilityMPH,Wind Direction,Wind SpeedMPH,Gust SpeedMPH,PrecipitationIn,Events,Conditions,WindDirDegrees,DateUTC
12:15 AM,35.1,32.0,89,29.88,10.0,NNW,18.4,24.2,N/A,,Overcast,340,2013-01-13 06:15:00
12:35 AM,34.9,32.0,89,29.88,10.0,North,15.0,20.7,N/A,,Overcast,350,2013-01-13 06:35:00
12:55 AM,34.9,32.0,89,29.90,10.0,North,19.6,24.2,N/A,,Overcast,350,2013-01-13 06:55:00
1:15 AM,34.3,31.8,90,29.90,10.0,NNW,16.1,20.7,N/A,,Overcast,340,2013-01-13 07:15:00
1:35 AM,33.8,30.7,89,29.91,10.0,North,16.1,24.2,N/A,,Overcast,350,2013-01-13 07:35:00
1:55 AM,32.9,29.8,88,29.92,10.0,North,13.8,26.5,N/A,,Overcast,360,2013-01-13 07:55:00
2:15 AM,32.5,29.8,90,29.94,10.0,NNW,12.7,-,N/A,,Overcast,340,2013-01-13 08:15:00
2:35 AM,32.2,29.1,88,29.98,10.0,NNW,15.0,-,N/A,,Overcast,330,2013-01-13 08:35:00
2:55 AM,32.0,28.2,86,30.00,10.0,NNW,12.7,18.4,N/A,,Overcast,340,2013-01-13 08:55:00
3:15 AM,32.0,28.0,85,29.98,10.0,North,13.8,20.7,N/A,,Overcast,350,2013-01-13 09:15:00
3:35 AM,32.0,27.9,85,30.02,10.0,NNW,15.0,19.6,N/A,,Overcast,330,2013-01-13 09:35:00
3:55 AM,31.1,25.3,79,30.01,10.0,NNW,17.3,26.5,N/A,,Overcast,340,2013-01-13 09:55:00
4:15 AM,31.1,26.1,82,30.01,10.0,North,15.0,-,N/A,,Overcast,360,2013-01-13 10:15:00
4:35 AM,30.9,24.8,78,29.99,10.0,North,16.1,23.0,N/A,,Overcast,360,2013-01-13 10:35:00
4:55 AM,31.1,25.3,79,30.02,10.0,North,11.5,17.3,N/A,,Overcast,360,2013-01-13 10:55:00
5:15 AM,30.7,25.3,80,29.99,10.0,North,9.2,-,N/A,,Overcast,360,2013-01-13 11:15:00
5:35 AM,31.1,25.9,81,30.01,10.0,NNW,11.5,-,N/A,,Overcast,340,2013-01-13 11:35:00
5:55 AM,31.1,25.5,80,30.02,10.0,NNW,12.7,20.7,N/A,,Overcast,340,2013-01-13 11:55:00
6:15 AM,30.7,24.8,79,30.05,10.0,NNW,11.5,-,N/A,,Overcast,340,2013-01-13 12:15:00
6:35 AM,30.6,24.8,79,30.06,10.0,NNW,15.0,19.6,N/A,,Overcast,340,2013-01-13 12:35:00
6:55 AM,30.2,24.1,78,30.07,10.0,North,16.1,21.9,N/A,,Overcast,350,2013-01-13 12:55:00
7:15 AM,30.0,23.9,78,30.10,10.0,NNW,11.5,-,N/A,,Overcast,340,2013-01-13 13:15:00
7:35 AM,30.2,23.9,77,30.13,10.0,NNW,11.5,-,N/A,,Overcast,340,2013-01-13 13:35:00
7:55 AM,29.8,24.3,80,30.13,10.0,NNW,12.7,-,N/A,,Overcast,340,2013-01-13 13:55:00
8:15 AM,29.7,24.4,81,30.14,10.0,NNW,12.7,21.9,N/A,,Overcast,340,2013-01-13 14:15:00
8:35 AM,29.7,24.4,81,30.14,10.0,NNW,13.8,20.7,N/A,,Overcast,340,2013-01-13 14:35:00
8:55 AM,29.3,23.9,80,30.16,10.0,NNW,15.0,20.7,N/A,,Overcast,340,2013-01-13 14:55:00
9:15 AM,29.5,23.2,77,30.17,10.0,North,17.3,21.9,N/A,,Mostly Cloudy,350,2013-01-13 15:15:00
9:35 AM,31.1,23.5,74,30.17,10.0,NNW,18.4,21.9,N/A,,Mostly Cloudy,330,2013-01-13 15:35:00
9:55 AM,31.6,22.5,69,30.18,10.0,NNW,13.8,25.3,N/A,,Scattered Clouds,340,2013-01-13 15:55:00
10:15 AM,32.4,22.8,68,30.18,10.0,NNW,18.4,23.0,N/A,,Clear,340,2013-01-13 16:15:00
10:35 AM,32.5,22.6,67,30.19,10.0,NNW,18.4,23.0,N/A,,Clear,340,2013-01-13 16:35:00
10:55 AM,33.3,22.8,66,30.19,10.0,NNW,15.0,21.9,N/A,,Clear,340,2013-01-13 16:55:00
11:15 AM,33.4,22.5,64,30.19,10.0,NNW,13.8,20.7,N/A,,Clear,340,2013-01-13 17:15:00
11:35 AM,34.7,23.0,62,30.18,10.0,NW,18.4,21.9,N/A,,Clear,320,2013-01-13 17:35:00
11:55 AM,34.7,22.6,61,30.18,10.0,NNW,17.3,21.9,N/A,,Clear,330,2013-01-13 17:55:00
12:15 PM,35.4,23.0,61,30.18,10.0,NNW,17.3,23.0,N/A,,Clear,330,2013-01-13 18:15:00
12:55 PM,37.0,23.4,58,30.17,10.0,NNW,13.8,-,N/A,,Clear,340,2013-01-13 18:55:00
1:15 PM,37.6,22.8,55,30.17,10.0,North,15.0,20.7,N/A,,Clear,350,2013-01-13 19:15:00
1:35 PM,37.9,22.8,55,30.17,10.0,NNW,12.7,19.6,N/A,,Clear,340,2013-01-13 19:35:00
1:55 PM,38.5,23.2,54,30.16,10.0,North,13.8,21.9,N/A,,Clear,360,2013-01-13 19:55:00
2:15 PM,38.7,22.6,53,30.17,10.0,North,12.7,-,N/A,,Clear,350,2013-01-13 20:15:00
2:35 PM,39.0,22.1,51,30.17,10.0,North,12.7,17.3,N/A,,Clear,360,2013-01-13 20:35:00
2:55 PM,38.5,20.8,49,30.18,10.0,North,16.1,20.7,N/A,,Clear,360,2013-01-13 20:55:00
3:15 PM,38.7,20.8,49,30.18,10.0,North,16.1,20.7,N/A,,Clear,10,2013-01-13 21:15:00
3:35 PM,38.3,20.1,48,30.18,10.0,North,11.5,19.6,N/A,,Clear,360,2013-01-13 21:35:00
3:55 PM,38.5,20.8,49,30.19,10.0,North,12.7,-,N/A,,Clear,350,2013-01-13 21:55:00
4:15 PM,37.9,20.1,49,30.20,10.0,North,11.5,16.1,N/A,,Clear,350,2013-01-13 22:15:00
4:35 PM,37.2,19.8,49,30.20,10.0,North,10.4,-,N/A,,Clear,10,2013-01-13 22:35:00
4:55 PM,36.5,18.7,49,30.20,10.0,North,11.5,16.1,N/A,,Clear,350,2013-01-13 22:55:00
5:15 PM,35.2,18.5,51,30.21,10.0,North,10.4,-,N/A,,Clear,360,2013-01-13 23:15:00
5:35 PM,33.8,18.1,53,30.22,10.0,North,10.4,-,N/A,,Clear,360,2013-01-13 23:35:00
6:15 PM,32.0,18.9,58,30.23,10.0,North,6.9,-,N/A,,Clear,360,2013-01-14 00:15:00
6:35 PM,31.6,18.7,59,30.23,10.0,North,6.9,-,N/A,,Clear,360,2013-01-14 00:35:00
6:55 PM,30.7,18.5,60,30.23,10.0,North,9.2,-,N/A,,Clear,360,2013-01-14 00:55:00
7:15 PM,30.6,18.5,61,30.24,10.0,North,8.1,-,N/A,,Clear,360,2013-01-14 01:15:00
7:35 PM,29.8,18.5,63,30.24,10.0,North,6.9,-,N/A,,Clear,350,2013-01-14 01:35:00
7:55 PM,29.1,18.5,65,30.24,10.0,North,8.1,-,N/A,,Clear,350,2013-01-14 01:55:00
8:15 PM,28.6,18.9,67,30.24,10.0,North,6.9,-,N/A,,Clear,350,2013-01-14 02:15:00
8:35 PM,28.0,19.2,70,30.24,10.0,North,6.9,-,N/A,,Clear,350,2013-01-14 02:35:00
8:55 PM,27.7,19.4,71,30.24,10.0,North,8.1,-,N/A,,Clear,350,2013-01-14 02:55:00
9:15 PM,27.5,19.2,71,30.25,10.0,North,5.8,-,N/A,,Clear,10,2013-01-14 03:15:00
9:35 PM,27.5,19.2,71,30.26,10.0,North,9.2,-,N/A,,Clear,360,2013-01-14 03:35:00
9:55 PM,27.1,19.0,72,30.27,10.0,North,8.1,-,N/A,,Clear,360,2013-01-14 03:55:00
10:15 PM,27.0,19.2,73,30.26,10.0,North,9.2,-,N/A,,Clear,360,2013-01-14 04:15:00
10:35 PM,27.0,19.0,72,30.26,10.0,North,8.1,-,N/A,,Clear,360,2013-01-14 04:35:00
10:55 PM,26.6,19.2,74,30.27,10.0,North,6.9,-,N/A,,Clear,360,2013-01-14 04:55:00
11:35 PM,26.1,18.9,74,30.29,10.0,NNE,3.5,-,N/A,,Clear,20,2013-01-14 05:35:00
11:55 PM,25.9,18.9,75,30.30,10.0,NNE,5.8,-,N/A,,Clear,20,2013-01-14 05:55:00